Terminal Aerodrome Forecast
Issued by NWS Sterling, VA

Current Version | Previous Version | Text Only | Print | Product List | Glossary Off
Versions: 1 2 3 4 5 6 7 8 9 10 11 12 13 14 15 16 17 18 19 20

000
FTUS41 KLWX 241100
TAFMRB
TAF
KMRB 241121Z 2412/2512 35005KT 2SM -SN OVC008
     FM241600 32006KT P6SM OVC025
     FM241700 30007KT P6SM OVC035
     FM242100 29011KT P6SM SCT250
     FM250800 28007KT P6SM SCT250=

USA.gov is the U.S. government's official web portal to all federal, state and local government web resources and services.